createdAt,value
2023-04-07T00:01:42.624Z,85.70
2023-04-07T00:04:10.271Z,85.00
2023-04-07T00:06:37.512Z,84.50
2023-04-07T00:09:04.599Z,86.90
2023-04-07T00:11:31.656Z,87.90
2023-04-07T00:13:58.759Z,87.60
2023-04-07T00:16:25.816Z,88.40
2023-04-07T00:18:53.057Z,87.60
2023-04-07T00:21:20.172Z,88.20
2023-04-07T00:23:47.876Z,89.10
2023-04-07T00:26:15.048Z,89.50
2023-04-07T00:28:44.485Z,86.00
2023-04-07T00:31:11.659Z,89.50
2023-04-07T00:33:39.246Z,88.70
2023-04-07T00:36:06.579Z,86.90
2023-04-07T00:38:33.731Z,88.00
2023-04-07T00:41:01.539Z,87.50
2023-04-07T00:43:28.599Z,87.30
2023-04-07T00:45:56.542Z,88.50
2023-04-07T00:48:23.742Z,90.50
2023-04-07T00:50:51.214Z,89.00
2023-04-07T00:53:20.414Z,91.30
2023-04-07T00:55:47.602Z,90.40
2023-04-07T00:58:14.859Z,91.00
2023-04-07T01:00:51.737Z,91.20
2023-04-07T01:03:30.760Z,91.40
2023-04-07T01:06:02.836Z,91.00
2023-04-07T01:08:50.233Z,91.50
2023-04-07T01:11:30.982Z,90.90
2023-04-07T01:14:00.158Z,90.50
2023-04-07T01:16:53.834Z,89.50
2023-04-07T01:19:40.357Z,90.30
2023-04-07T01:22:14.392Z,90.90
2023-04-07T01:24:52.401Z,91.10
2023-04-07T01:27:40.544Z,91.50
2023-04-07T01:30:11.813Z,92.00
2023-04-07T01:32:41.874Z,91.90
2023-04-07T01:35:13.171Z,91.20
2023-04-07T01:37:41.190Z,91.10
2023-04-07T01:40:09.313Z,91.30
2023-04-07T01:42:38.072Z,91.00
2023-04-07T01:45:07.905Z,91.00
2023-04-07T01:47:37.752Z,91.00
2023-04-07T01:50:09.286Z,91.00
2023-04-07T01:52:37.114Z,91.20
2023-04-07T01:55:05.507Z,91.20
2023-04-07T01:57:36.295Z,91.00
2023-04-07T02:00:11.647Z,90.00
2023-04-07T02:02:57.605Z,89.60
2023-04-07T02:05:26.409Z,89.00
2023-04-07T02:07:59.784Z,89.40
2023-04-07T02:10:29.770Z,88.90
2023-04-07T02:13:02.143Z,90.10
2023-04-07T02:15:32.236Z,90.10
2023-04-07T02:18:01.947Z,90.20
2023-04-07T02:20:30.643Z,90.60
2023-04-07T02:22:58.423Z,91.60
2023-04-07T02:25:31.001Z,91.50
2023-04-07T02:27:59.573Z,91.70
2023-04-07T02:30:28.642Z,91.50
2023-04-07T02:32:56.542Z,92.50
2023-04-07T02:35:24.108Z,92.70
2023-04-07T02:37:51.469Z,92.30
2023-04-07T02:40:18.788Z,92.10
2023-04-07T02:42:46.703Z,92.10
2023-04-07T02:45:14.660Z,92.70
2023-04-07T02:47:41.771Z,92.60
2023-04-07T02:50:09.812Z,92.30
2023-04-07T02:52:37.151Z,92.90
2023-04-07T02:55:10.758Z,94.00
2023-04-07T02:57:38.161Z,93.90
2023-04-07T03:00:10.510Z,93.70
2023-04-07T03:02:57.710Z,95.10
2023-04-07T03:05:26.693Z,94.50
2023-04-07T03:07:53.901Z,94.30
2023-04-07T03:10:21.052Z,93.60
2023-04-07T03:12:48.731Z,93.80
2023-04-07T03:15:17.659Z,95.00
2023-04-07T03:17:47.774Z,94.60
2023-04-07T03:20:17.376Z,94.70
2023-04-07T03:22:44.859Z,96.40
2023-04-07T03:25:18.746Z,97.00
2023-04-07T03:27:46.374Z,95.50
2023-04-07T03:30:15.592Z,95.00
2023-04-07T03:32:44.087Z,95.20
2023-04-07T03:35:11.473Z,95.50
2023-04-07T03:37:38.615Z,96.60
2023-04-07T03:40:11.954Z,96.90
2023-04-07T03:42:39.249Z,96.50
2023-04-07T03:45:08.663Z,95.90
2023-04-07T03:47:38.523Z,95.60
2023-04-07T03:50:07.020Z,95.70
2023-04-07T03:52:41.824Z,95.30
2023-04-07T03:55:20.498Z,95.50
2023-04-07T03:57:47.693Z,96.00
2023-04-07T04:00:15.813Z,96.40
2023-04-07T04:02:48.775Z,96.30
2023-04-07T04:05:19.946Z,96.10
2023-04-07T04:07:47.830Z,95.90
2023-04-07T04:10:16.313Z,96.90
2023-04-07T04:12:48.974Z,96.30
2023-04-07T04:15:16.458Z,96.10
2023-04-07T04:17:43.601Z,96.00
2023-04-07T04:20:11.336Z,96.10
2023-04-07T04:22:43.168Z,96.10
2023-04-07T04:25:10.565Z,95.70
2023-04-07T04:27:37.643Z,95.70
2023-04-07T04:30:13.621Z,95.60
2023-04-07T04:32:49.825Z,95.90
2023-04-07T04:35:20.919Z,95.80
2023-04-07T04:38:02.697Z,96.20
2023-04-07T04:40:30.508Z,95.80
2023-04-07T04:42:57.781Z,95.70
2023-04-07T04:45:25.746Z,95.90
2023-04-07T04:47:52.975Z,96.30
2023-04-07T04:50:21.020Z,96.10
2023-04-07T04:52:49.785Z,96.00
2023-04-07T04:55:20.749Z,95.70
2023-04-07T04:57:48.184Z,95.30
2023-04-07T05:00:21.351Z,95.50
2023-04-07T05:02:52.756Z,95.40
2023-04-07T05:05:20.106Z,95.60
2023-04-07T05:07:49.610Z,95.80
2023-04-07T05:10:17.043Z,95.80
2023-04-07T05:12:49.491Z,95.70
2023-04-07T05:15:16.721Z,95.40
2023-04-07T05:17:50.659Z,95.70
2023-04-07T05:20:23.130Z,95.70
2023-04-07T05:22:50.819Z,95.80
2023-04-07T05:25:21.415Z,95.00
2023-04-07T05:27:52.238Z,94.60
2023-04-07T05:30:19.602Z,94.40
2023-04-07T05:32:46.654Z,94.30
2023-04-07T05:35:23.105Z,93.40
2023-04-07T05:37:55.050Z,93.00
2023-04-07T05:40:22.912Z,92.80
2023-04-07T05:42:50.737Z,93.10
2023-04-07T05:45:18.442Z,92.50
2023-04-07T05:47:50.635Z,91.60
2023-04-07T05:50:23.634Z,92.10
2023-04-07T05:52:51.427Z,92.60
2023-04-07T05:55:23.069Z,91.70
2023-04-07T05:57:51.361Z,91.60
2023-04-07T06:00:21.689Z,91.10
2023-04-07T06:03:00.156Z,91.10
2023-04-07T06:05:28.817Z,91.30
2023-04-07T06:07:57.432Z,91.50
2023-04-07T06:10:27.310Z,91.60
2023-04-07T06:12:54.570Z,91.50
2023-04-07T06:15:21.660Z,91.30
2023-04-07T06:17:48.905Z,92.10
2023-04-07T06:20:16.182Z,92.00
2023-04-07T06:22:43.437Z,91.80
2023-04-07T06:25:10.816Z,91.60
2023-04-07T06:27:37.950Z,91.60
2023-04-07T06:30:05.905Z,90.90
2023-04-07T06:32:33.630Z,91.30
2023-04-07T06:35:00.944Z,91.40
2023-04-07T06:37:28.147Z,90.90
2023-04-07T06:39:55.429Z,89.90
2023-04-07T06:42:22.507Z,88.30
2023-04-07T06:44:58.862Z,90.80
2023-04-07T06:47:26.042Z,89.40
2023-04-07T06:49:53.060Z,87.30
2023-04-07T06:52:20.433Z,86.30
2023-04-07T06:54:47.509Z,85.60
2023-04-07T06:57:14.931Z,85.30
2023-04-07T06:59:42.028Z,84.80
2023-04-07T07:02:09.405Z,83.80
2023-04-07T07:04:36.713Z,83.10
2023-04-07T07:07:03.995Z,82.00
2023-04-07T07:09:31.089Z,82.00
2023-04-07T07:11:58.129Z,82.20
2023-04-07T07:14:25.126Z,84.10
2023-04-07T07:16:52.167Z,83.80
2023-04-07T07:19:19.419Z,82.50
2023-04-07T07:21:46.497Z,82.00
2023-04-07T07:24:13.670Z,82.60
2023-04-07T07:26:43.463Z,84.40
2023-04-07T07:29:11.377Z,82.60
2023-04-07T07:31:38.465Z,82.30
2023-04-07T07:34:05.685Z,81.90
2023-04-07T07:36:32.784Z,81.20
2023-04-07T07:38:59.811Z,80.10
2023-04-07T07:41:27.310Z,80.30
2023-04-07T07:43:54.554Z,80.20
2023-04-07T07:46:22.377Z,78.90
2023-04-07T07:48:49.471Z,77.80
2023-04-07T07:51:16.597Z,76.80
2023-04-07T07:53:44.015Z,77.20
2023-04-07T07:56:11.331Z,73.00
2023-04-07T07:58:38.849Z,72.90
2023-04-07T08:01:06.114Z,71.20
2023-04-07T08:03:33.499Z,67.70
2023-04-07T08:06:01.219Z,68.20
2023-04-07T08:08:28.317Z,66.70
2023-04-07T08:10:55.381Z,69.30
2023-04-07T08:13:22.507Z,64.90
2023-04-07T08:15:49.724Z,64.70
2023-04-07T08:18:16.851Z,61.90
2023-04-07T08:20:43.941Z,59.90
2023-04-07T08:23:11.341Z,57.70
2023-04-07T08:25:41.037Z,56.20
2023-04-07T08:28:08.140Z,54.10
2023-04-07T08:30:35.488Z,51.60
2023-04-07T08:33:04.143Z,50.20
2023-04-07T08:35:31.295Z,47.10
2023-04-07T08:37:58.881Z,45.90
2023-04-07T08:40:25.856Z,46.10
2023-04-07T08:42:53.600Z,47.20
2023-04-07T08:45:22.351Z,47.00
2023-04-07T08:47:55.395Z,47.90
2023-04-07T08:50:26.312Z,48.90
2023-04-07T08:52:54.171Z,48.10
2023-04-07T08:55:21.524Z,49.20
2023-04-07T08:57:49.270Z,48.40
2023-04-07T09:00:16.544Z,49.70
2023-04-07T09:02:45.790Z,49.30
2023-04-07T09:05:15.036Z,50.90
2023-04-07T09:07:43.825Z,50.80
2023-04-07T09:10:11.404Z,48.60
2023-04-07T09:12:39.169Z,51.10
2023-04-07T09:15:07.980Z,50.90
2023-04-07T09:17:35.185Z,48.10
2023-04-07T09:20:03.026Z,47.30
2023-04-07T09:22:38.672Z,48.10
2023-04-07T09:25:24.145Z,45.70
2023-04-07T09:28:03.320Z,45.80
2023-04-07T09:30:32.716Z,44.30
2023-04-07T09:33:01.123Z,43.70
2023-04-07T09:35:29.939Z,45.30
2023-04-07T09:38:09.562Z,43.00
2023-04-07T09:40:38.929Z,42.80
2023-04-07T09:43:06.934Z,43.10
2023-04-07T09:45:36.552Z,43.50
2023-04-07T09:48:08.057Z,43.00
2023-04-07T09:50:41.306Z,43.60
2023-04-07T09:53:08.866Z,42.20
2023-04-07T09:55:36.982Z,42.40
2023-04-07T09:58:06.512Z,42.70
2023-04-07T10:00:35.469Z,43.40
2023-04-07T10:03:04.369Z,42.90
2023-04-07T10:05:33.026Z,42.60
2023-04-07T10:08:02.571Z,43.20
2023-04-07T10:10:31.983Z,42.20
2023-04-07T10:13:00.174Z,44.60
2023-04-07T10:15:27.504Z,42.80
2023-04-07T10:17:56.995Z,43.00
2023-04-07T10:20:25.000Z,44.00
2023-04-07T10:22:54.261Z,40.80
2023-04-07T10:25:24.854Z,41.30
2023-04-07T10:27:56.606Z,40.40
2023-04-07T10:30:29.079Z,42.90
2023-04-07T10:32:57.201Z,38.90
2023-04-07T10:35:24.991Z,39.50
2023-04-07T10:38:08.153Z,41.10
2023-04-07T10:40:36.593Z,41.10
2023-04-07T10:43:05.080Z,40.50
2023-04-07T10:45:48.861Z,41.30
2023-04-07T10:48:17.309Z,41.60
2023-04-07T10:50:46.455Z,41.10
2023-04-07T10:53:15.409Z,40.30
2023-04-07T10:55:45.272Z,41.10
2023-04-07T10:58:14.547Z,41.20
2023-04-07T11:00:41.949Z,41.60
2023-04-07T11:03:14.337Z,40.90
2023-04-07T11:05:42.259Z,40.60
2023-04-07T11:08:09.583Z,42.30
2023-04-07T11:10:36.921Z,42.00
2023-04-07T11:13:06.395Z,40.70
2023-04-07T11:15:38.572Z,41.90
2023-04-07T11:18:23.964Z,40.80
2023-04-07T11:20:53.555Z,41.60
2023-04-07T11:23:24.054Z,43.40
2023-04-07T11:25:53.062Z,41.30
2023-04-07T11:28:20.414Z,44.00
2023-04-07T11:30:50.259Z,41.20
2023-04-07T11:33:21.365Z,41.50
2023-04-07T11:35:51.357Z,40.60
2023-04-07T11:38:19.468Z,40.10
2023-04-07T11:40:46.775Z,42.10
2023-04-07T11:43:25.153Z,41.10
2023-04-07T11:46:09.657Z,40.90
2023-04-07T11:48:38.973Z,41.10
2023-04-07T11:51:07.059Z,41.40
2023-04-07T11:53:38.199Z,41.50
2023-04-07T11:56:09.857Z,41.80
2023-04-07T11:58:37.616Z,41.50
2023-04-07T12:01:09.236Z,42.70
2023-04-07T12:03:37.606Z,40.30
2023-04-07T12:06:05.358Z,40.10
2023-04-07T12:08:42.653Z,40.30
2023-04-07T12:11:10.647Z,42.60
2023-04-07T12:13:38.090Z,41.70
2023-04-07T12:16:05.760Z,40.20
2023-04-07T12:18:33.500Z,40.90
2023-04-07T12:21:01.512Z,40.20
2023-04-07T12:23:28.705Z,38.50
2023-04-07T12:25:56.045Z,39.30
2023-04-07T12:28:23.329Z,41.10
2023-04-07T12:30:50.589Z,39.80
2023-04-07T12:33:17.754Z,40.50
2023-04-07T12:35:45.221Z,40.70
2023-04-07T12:38:12.556Z,38.60
2023-04-07T12:40:40.224Z,39.00
2023-04-07T12:43:07.699Z,39.50
2023-04-07T12:45:34.998Z,39.10
2023-04-07T12:48:02.169Z,41.40
2023-04-07T12:50:30.572Z,41.40
2023-04-07T12:52:59.956Z,41.00
2023-04-07T12:55:27.084Z,41.10
2023-04-07T12:57:55.371Z,41.40
2023-04-07T13:00:22.546Z,41.80
2023-04-07T13:02:49.916Z,42.70
2023-04-07T13:05:18.865Z,43.60
2023-04-07T13:07:47.377Z,41.80
2023-04-07T13:10:16.133Z,41.70
2023-04-07T13:12:43.377Z,41.90
2023-04-07T13:15:10.928Z,41.20
2023-04-07T13:17:38.992Z,43.70
2023-04-07T13:20:07.827Z,42.30
2023-04-07T13:22:36.006Z,43.40
2023-04-07T13:25:03.515Z,43.40
2023-04-07T13:27:30.800Z,42.10
2023-04-07T13:29:57.792Z,42.50
2023-04-07T13:32:24.849Z,42.20
2023-04-07T13:34:52.988Z,43.70
2023-04-07T13:37:20.554Z,42.10
2023-04-07T13:39:47.653Z,41.20
2023-04-07T13:42:17.686Z,43.30
2023-04-07T13:44:47.533Z,43.30
2023-04-07T13:47:19.669Z,44.30
2023-04-07T13:49:47.861Z,44.80
2023-04-07T13:52:15.706Z,45.40
2023-04-07T13:54:43.273Z,45.60
2023-04-07T13:57:10.512Z,46.90
2023-04-07T13:59:37.496Z,47.00
2023-04-07T14:02:04.739Z,48.20
2023-04-07T14:04:32.016Z,48.00
2023-04-07T14:06:59.029Z,47.40
2023-04-07T14:09:26.587Z,47.90
2023-04-07T14:11:53.834Z,46.70
2023-04-07T14:14:21.066Z,47.10
2023-04-07T14:16:50.900Z,45.70
2023-04-07T14:19:20.548Z,47.20
2023-04-07T14:21:47.648Z,46.30
2023-04-07T14:24:15.087Z,46.80
2023-04-07T14:26:44.865Z,46.50
2023-04-07T14:29:12.891Z,46.70
2023-04-07T14:31:40.368Z,48.00
2023-04-07T14:34:08.395Z,48.10
2023-04-07T14:36:35.788Z,50.70
2023-04-07T14:39:03.858Z,51.70
2023-04-07T14:41:31.693Z,52.30
2023-04-07T14:43:58.812Z,51.60
2023-04-07T14:46:27.681Z,52.70
2023-04-07T14:48:54.875Z,52.20
2023-04-07T14:51:22.221Z,52.20
2023-04-07T14:53:56.231Z,52.40
2023-04-07T14:56:25.051Z,52.50
2023-04-07T14:58:52.288Z,53.40
2023-04-07T15:01:19.448Z,54.40
2023-04-07T15:03:47.620Z,55.10
2023-04-07T15:06:16.895Z,55.10
2023-04-07T15:08:44.116Z,55.10
2023-04-07T15:11:11.539Z,55.90
2023-04-07T15:13:38.540Z,55.30
2023-04-07T15:16:09.480Z,56.10
2023-04-07T15:18:38.871Z,56.10
2023-04-07T15:21:06.513Z,56.00
2023-04-07T15:23:34.108Z,56.40
2023-04-07T15:26:01.297Z,56.20
2023-04-07T15:28:28.342Z,56.00
2023-04-07T15:30:55.462Z,55.90
2023-04-07T15:33:22.673Z,55.70
2023-04-07T15:35:50.682Z,56.50
2023-04-07T15:38:18.242Z,55.70
2023-04-07T15:40:45.448Z,56.20
2023-04-07T15:43:12.787Z,56.40
2023-04-07T15:45:44.335Z,57.30
2023-04-07T15:48:12.623Z,56.50
2023-04-07T15:50:39.774Z,56.90
2023-04-07T15:53:07.301Z,57.20
2023-04-07T15:55:35.601Z,57.30
2023-04-07T15:58:04.130Z,57.70
2023-04-07T16:00:34.390Z,57.80
2023-04-07T16:03:02.943Z,58.20
2023-04-07T16:05:30.524Z,57.60
2023-04-07T16:07:57.895Z,58.70
2023-04-07T16:10:25.374Z,58.70
2023-04-07T16:12:52.839Z,58.20
2023-04-07T16:15:28.957Z,58.80
2023-04-07T16:18:08.697Z,58.80
2023-04-07T16:20:35.899Z,59.80
2023-04-07T16:23:03.092Z,60.20
2023-04-07T16:25:30.900Z,60.20
2023-04-07T16:27:58.139Z,60.90
2023-04-07T16:30:25.539Z,61.70
2023-04-07T16:32:52.761Z,62.20
2023-04-07T16:35:20.063Z,62.30
2023-04-07T16:37:47.799Z,61.90
2023-04-07T16:40:14.956Z,62.00
2023-04-07T16:42:42.193Z,61.70
2023-04-07T16:45:09.666Z,61.70
2023-04-07T16:47:38.264Z,62.50
2023-04-07T16:50:05.998Z,63.60
2023-04-07T16:52:33.131Z,63.60
2023-04-07T16:55:01.184Z,63.80
2023-04-07T16:57:28.598Z,63.80
2023-04-07T16:59:55.865Z,63.90
2023-04-07T17:02:23.435Z,64.60
2023-04-07T17:04:50.753Z,65.10
2023-04-07T17:07:19.244Z,65.90
2023-04-07T17:09:46.307Z,65.20
2023-04-07T17:12:13.807Z,65.60
2023-04-07T17:14:41.720Z,65.30
2023-04-07T17:17:08.814Z,65.30
2023-04-07T17:19:36.189Z,65.60
2023-04-07T17:22:03.673Z,66.20
2023-04-07T17:24:30.853Z,67.10
2023-04-07T17:26:58.084Z,66.40
2023-04-07T17:29:29.196Z,66.40
2023-04-07T17:31:57.635Z,66.50
2023-04-07T17:34:24.874Z,67.00
2023-04-07T17:36:51.997Z,67.30
2023-04-07T17:39:19.486Z,66.90
2023-04-07T17:41:47.650Z,67.20
2023-04-07T17:44:15.090Z,66.80
2023-04-07T17:46:45.728Z,67.70
2023-04-07T17:49:13.345Z,67.70
2023-04-07T17:51:40.715Z,67.30
2023-04-07T17:54:07.938Z,66.90
2023-04-07T17:56:35.088Z,67.00
2023-04-07T17:59:02.319Z,66.80
2023-04-07T18:01:29.556Z,67.50
2023-04-07T18:03:57.434Z,67.40
2023-04-07T18:06:24.708Z,67.50
2023-04-07T18:08:51.774Z,67.60
2023-04-07T18:11:19.533Z,68.30
2023-04-07T18:13:46.801Z,68.20
2023-04-07T18:16:18.180Z,68.70
2023-04-07T18:18:49.072Z,68.60
2023-04-07T18:21:16.429Z,68.90
2023-04-07T18:23:43.762Z,69.40
2023-04-07T18:26:11.071Z,68.50
2023-04-07T18:28:38.222Z,69.40
2023-04-07T18:31:07.931Z,69.20
2023-04-07T18:33:37.580Z,69.90
2023-04-07T18:36:08.270Z,69.30
2023-04-07T18:38:36.736Z,69.60
2023-04-07T18:41:06.628Z,70.30
2023-04-07T18:43:34.383Z,70.00
2023-04-07T18:46:01.632Z,70.60
2023-04-07T18:48:28.930Z,71.40
2023-04-07T18:50:56.644Z,71.40
2023-04-07T18:53:25.618Z,71.10
2023-04-07T18:55:53.052Z,71.30
2023-04-07T18:58:21.038Z,71.10
2023-04-07T19:00:50.379Z,70.90
2023-04-07T19:03:17.915Z,70.80
2023-04-07T19:05:47.449Z,70.60
2023-04-07T19:08:16.333Z,70.90
2023-04-07T19:10:44.171Z,71.40
2023-04-07T19:13:11.522Z,71.40
2023-04-07T19:15:40.791Z,71.30
2023-04-07T19:18:08.441Z,71.80
2023-04-07T19:20:35.675Z,72.00
2023-04-07T19:23:03.352Z,71.80
2023-04-07T19:25:31.363Z,72.00
2023-04-07T19:27:59.111Z,73.00
2023-04-07T19:30:26.670Z,71.80
2023-04-07T19:32:54.220Z,72.70
2023-04-07T19:35:21.623Z,72.70
2023-04-07T19:37:48.830Z,72.60
2023-04-07T19:40:16.924Z,73.20
2023-04-07T19:42:44.222Z,73.80
2023-04-07T19:45:12.104Z,73.70
2023-04-07T19:47:40.972Z,74.00
2023-04-07T19:50:09.813Z,73.50
2023-04-07T19:52:38.846Z,74.20
2023-04-07T19:55:07.919Z,74.30
2023-04-07T19:57:36.098Z,75.00
2023-04-07T20:00:04.555Z,74.50
2023-04-07T20:02:31.856Z,74.30
2023-04-07T20:04:59.148Z,75.00
2023-04-07T20:07:27.231Z,75.80
2023-04-07T20:09:55.118Z,76.00
2023-04-07T20:12:22.132Z,76.50
2023-04-07T20:14:49.484Z,77.20
2023-04-07T20:17:16.650Z,77.90
2023-04-07T20:19:43.820Z,77.60
2023-04-07T20:22:10.912Z,78.20
2023-04-07T20:24:39.266Z,79.00
2023-04-07T20:27:06.378Z,79.50
2023-04-07T20:29:33.488Z,81.00
2023-04-07T20:32:00.904Z,82.00
2023-04-07T20:34:28.036Z,82.70
2023-04-07T20:36:55.901Z,83.70
2023-04-07T20:39:22.908Z,84.50
2023-04-07T20:41:50.046Z,85.40
2023-04-07T20:44:17.119Z,85.60
2023-04-07T20:46:46.489Z,85.70
2023-04-07T20:49:13.580Z,86.90
2023-04-07T20:51:40.948Z,86.90
2023-04-07T20:54:08.082Z,87.10
2023-04-07T20:56:35.653Z,88.10
2023-04-07T20:59:02.729Z,89.30
2023-04-07T21:01:29.927Z,90.20
2023-04-07T21:03:57.207Z,90.50
2023-04-07T21:06:24.486Z,90.70
2023-04-07T21:08:51.736Z,91.20
2023-04-07T21:11:18.764Z,91.40
2023-04-07T21:13:45.894Z,91.60
2023-04-07T21:16:12.986Z,92.00
2023-04-07T21:18:40.324Z,92.30
2023-04-07T21:21:08.242Z,92.40
2023-04-07T21:23:35.481Z,93.20
2023-04-07T21:26:03.868Z,93.20
2023-04-07T21:28:30.993Z,93.60
2023-04-07T21:30:58.409Z,94.10
2023-04-07T21:33:25.641Z,94.60
2023-04-07T21:35:53.265Z,95.40
2023-04-07T21:38:20.477Z,95.40
2023-04-07T21:40:47.617Z,95.90
2023-04-07T21:43:14.757Z,96.40
2023-04-07T21:45:42.125Z,96.40
2023-04-07T21:48:09.250Z,96.30
2023-04-07T21:50:37.246Z,96.40
2023-04-07T21:53:04.362Z,96.30
2023-04-07T21:55:31.639Z,96.70
2023-04-07T21:57:58.851Z,97.00
2023-04-07T22:00:26.182Z,96.60
2023-04-07T22:02:53.546Z,96.90
2023-04-07T22:05:21.398Z,96.90
2023-04-07T22:07:49.312Z,96.90
2023-04-07T22:10:16.506Z,97.10
2023-04-07T22:12:43.620Z,97.10
2023-04-07T22:15:12.194Z,97.50
2023-04-07T22:17:40.367Z,98.00
2023-04-07T22:20:09.276Z,97.90
2023-04-07T22:22:36.625Z,97.90
2023-04-07T22:25:03.977Z,98.10
2023-04-07T22:27:31.002Z,98.30
2023-04-07T22:29:58.390Z,98.30
2023-04-07T22:32:25.522Z,98.30
2023-04-07T22:34:52.680Z,98.80
2023-04-07T22:37:19.711Z,98.50
2023-04-07T22:39:47.079Z,98.60
2023-04-07T22:42:14.226Z,99.10
2023-04-07T22:44:41.299Z,98.60
2023-04-07T22:47:09.139Z,98.50
2023-04-07T22:49:36.422Z,98.60
2023-04-07T22:52:03.565Z,98.60
2023-04-07T22:54:30.764Z,98.70
2023-04-07T22:56:58.084Z,98.50
2023-04-07T22:59:25.453Z,99.10
2023-04-07T23:01:52.544Z,99.50
2023-04-07T23:04:21.480Z,99.80
2023-04-07T23:06:48.502Z,99.90
2023-04-07T23:09:15.719Z,99.90
2023-04-07T23:11:42.897Z,99.90
2023-04-07T23:14:09.959Z,99.90
2023-04-07T23:16:37.081Z,99.90
2023-04-07T23:19:04.166Z,99.90
2023-04-07T23:21:32.238Z,99.90
2023-04-07T23:23:59.917Z,99.90
2023-04-07T23:26:27.001Z,99.90
2023-04-07T23:28:53.984Z,99.90
2023-04-07T23:31:21.277Z,99.90
2023-04-07T23:33:48.385Z,99.90
2023-04-07T23:36:15.636Z,99.90
2023-04-07T23:38:42.751Z,99.90
2023-04-07T23:41:09.791Z,99.90
2023-04-07T23:43:36.921Z,99.90
2023-04-07T23:46:04.008Z,99.90
2023-04-07T23:48:31.480Z,99.90
2023-04-07T23:51:00.128Z,99.90
2023-04-07T23:53:27.425Z,99.90
2023-04-07T23:55:54.497Z,99.90
2023-04-07T23:58:21.587Z,99.90
